メインページ
METAR-TAF:

METAR-TAF

空港 :

ウィスラー, ブリティッシュコロンビア州, カナダ

緯度: 50-08N, 経度: 122-57W, 海抜: 658m

現時点の気象観測

当レポートは3時間41分前の01:00(UTC)に作成
の風 5kt
気温 11°C
湿度 82%
気圧 1006 hPa
視程: 24.1km
高度3500ftの雲は散在している
高度6000ftの曇り
小雨

METAR: CWAE 210100Z 18005KT 15SM -RA SCT035 OVC060 11/08 A2971 RMK SC4SC4 LAST OBS/NEXT 211300UTC WND ESTD SLP066 DENSITY ALT 2500FT

時間: 21:41 (04:41 UTC)


TAF: 見つかりません

4,000以上の空港の気象観測と天気予報(METAR報とTAF報)

利用可能な観測所は地図上に黄色い丸と赤い丸で示す。

丸の上にカーソルを重ねると観測所名を参照できる。

次にクリックすると気象観測と天気予報を参照できる。

マップの切り替え:黒色「×」印の緑ボタンをクリックして拡大、「-」印の緑ボタンをクリックして縮小、緑色の三角印をクリックして隣りの地図に切り替え


METAR-TAF: